• Join FlightAware (Why Join?)
  • Login
  • US Flag 
10:29AM EDT


 

Airport Tracker/Info


-or-


 

Live Flight TrackerFlight Track Log ✈ TAM8042 ✈ 10-Jul-2013 ✈ SBBR / BSB - KMIA

Flight Track Log - Related Links

Times and Time Zones

All times are in EDT time to prevent confusion due to time zone crossing. See the TAM8042 flight status page for this flight to view local times or setup timezone preferences in your user account.

Time Position Orientation Groundspeed Altitude Reporting Facility
EDT Latitude Longitude Course Direction KTS MPH feet Rate Location/Type
10:18PM -15.8630 -47.9260 87° East 20 23  Level FlightAware
10:19PM -15.8630 -47.9230 90° East 82 94 4,260 Level FlightAware
10:19PM -15.8620 -47.9050 87° East 175 201 5,220 Level FlightAware
10:19PM -15.8610 -47.8820 87° East 173 199 4,800 7,800 Climbing FlightAware
10:20PM -15.8630 -47.8710 101° East 186 214 5,200 2,520 Climbing FlightAware
10:20PM -15.8740 -47.8620 142° Southeast 191 220 6,000 3,000 Climbing FlightAware
10:20PM -15.8830 -47.8560 147° Southeast 192 221 6,600 900 Climbing FlightAware
10:21PM -15.9030 -47.8350 135° Southeast 204 235 6,700 120 Climbing FlightAware
10:21PM -15.9030 -47.8310 90° East 206 237 6,700  Level FlightAware
10:21PM -15.8920 -47.8100 61° Northeast 229 264 6,700  Level FlightAware
10:21PM -15.8800 -47.8020 33° Northeast 234 269 6,700  Level FlightAware
10:22PM -15.8630 -47.7980 13° North 245 282 6,700 180 Level FlightAware
10:22PM -15.8500 -47.7960 North 244 281 6,800 1,200 Climbing FlightAware
10:22PM -15.8170 -47.7920 North 245 282 7,500 1,680 Climbing FlightAware
10:23PM -15.7900 -47.7880 North 251 289 8,300 1,800 Climbing FlightAware
10:23PM -15.7510 -47.7840 North 285 328 9,200 1,980 Climbing FlightAware
10:24PM -15.6940 -47.7760 North 300 345 10,800 1,200 Climbing FlightAware
10:25PM -15.6340 -47.7670 North 298 343 11,000 780 Climbing FlightAware
10:25PM -15.5790 -47.7610 North 339 390 11,900 1,380 Climbing FlightAware
10:26PM -15.5390 -47.7760 340° North 378 435 12,500 1,500 Climbing FlightAware
10:26PM -15.5230 -47.7930 314° West 388 447 12,900 2,760 Climbing FlightAware
10:27PM -15.4950 -47.8610 293° West 397 457 14,900 3,000 Climbing FlightAware
10:27PM -15.4610 -47.9410 294° West 407 468 17,100 2,820 Climbing FlightAware
10:28PM -15.4330 -48.0020 295° West 415 478 18,700 2,460 Climbing FlightAware
10:29PM -15.3970 -48.0780 296° West 427 491 20,300 2,400 Climbing FlightAware
10:29PM -15.3580 -48.1600 296° West 437 503 22,100 2,400 Climbing FlightAware
10:30PM -15.3230 -48.2350 296° West 441 507 23,700 2,220 Climbing FlightAware
10:31PM -15.2860 -48.3080 298° West 446 513 25,100 2,280 Climbing FlightAware
10:31PM -15.2630 -48.3340 313° West 450 518 25,800 2,040 Climbing FlightAware
10:32PM -15.1920 -48.3790 329° Northwest 460 529 27,000 1,740 Climbing FlightAware
10:32PM -15.1040 -48.4270 332° Northwest 462 532 28,300 1,980 Climbing FlightAware
10:33PM -15.0440 -48.4580 333° Northwest 455 524 29,700 2,280 Climbing FlightAware
10:34PM -14.9660 -48.4990 333° Northwest 451 519 31,200 1,980 Climbing FlightAware
10:34PM -14.8940 -48.5370 333° Northwest 448 516 32,400 900 Climbing FlightAware
10:35PM -14.8340 -48.5700 332° Northwest 448 516 32,400 1,200 Level FlightAware
10:35PM -14.7510 -48.6130 333° Northwest 445 512 34,000 1,080 Climbing FlightAware
10:36PM -14.6770 -48.6520 333° Northwest 445 512 34,000  Level FlightAware
10:37PM -14.6200 -48.6820 333° Northwest 445 512 34,000  Level FlightAware
10:38PM -14.5460 -48.7210 333° Northwest 445 512 34,000  Level FlightAware
10:38PM -14.4880 -48.7510 333° Northwest 445 512 34,000  Level FlightAware
10:39PM -14.4130 -48.7910 333° Northwest 445 512 34,000  Level FlightAware
10:40PM -14.3570 -48.8200 333° Northwest 445 512 34,000  Level FlightAware
10:40PM -14.3010 -48.8500 333° Northwest 445 512 34,000  Level FlightAware
10:41PM -14.2430 -48.8800 333° Northwest 445 512 34,000  Level FlightAware
10:42PM -14.1680 -48.9190 333° Northwest 445 512 34,000  Level FlightAware
10:42PM -14.1150 -48.9470 333° Northwest 445 512 34,000  Level FlightAware
10:43PM -14.0580 -48.9780 332° Northwest 445 512 34,000  Level FlightAware
10:44PM -13.9830 -49.0170 333° Northwest 445 512 34,000  Level FlightAware
10:44PM -13.9270 -49.0460 333° Northwest 445 512 34,000  Level FlightAware
10:45PM -13.8700 -49.0760 333° Northwest 445 512 34,000  Level FlightAware
10:48PM -13.5805 -49.2329 332° Northwest  Level FlightAware Approximate
10:49PM -13.4699 -49.2927 332° Northwest  Level FlightAware Approximate
10:50PM -13.3592 -49.3525 332° Northwest  Level FlightAware Approximate
10:51PM -13.2486 -49.4122 332° Northwest  Level FlightAware Approximate
10:52PM -13.1379 -49.4719 332° Northwest  Level FlightAware Approximate
10:53PM -13.0272 -49.5315 332° Northwest  Level FlightAware Approximate
10:54PM -12.9164 -49.5911 332° Northwest  Level FlightAware Approximate
10:55PM -12.8057 -49.6506 332° Northwest  Level FlightAware Approximate
10:56PM -12.6950 -49.7101 332° Northwest  Level FlightAware Approximate
10:57PM -12.5842 -49.7695 332° Northwest  Level FlightAware Approximate
10:58PM -12.4734 -49.8289 332° Northwest  Level FlightAware Approximate
10:59PM -12.3627 -49.8882 332° Northwest  Level FlightAware Approximate
11:00PM -12.2519 -49.9474 332° Northwest  Level FlightAware Approximate
11:01PM -12.1411 -50.0066 332° Northwest  Level FlightAware Approximate
11:01PM -11.9240 -50.0830 332° Northwest 456 525 34,000  Level FlightAware
11:02PM -11.8610 -50.1160 333° Northwest 456 525 34,000  Level FlightAware
11:03PM -11.7820 -50.1570 333° Northwest 456 525 34,000  Level FlightAware
11:03PM -11.7430 -50.1770 333° Northwest 456 525 34,000  Level FlightAware
11:04PM -11.6660 -50.2170 333° Northwest 456 525 34,000  Level FlightAware
11:04PM -11.6090 -50.2470 333° Northwest 456 525 34,000  Level FlightAware
11:05PM -11.5320 -50.2870 333° Northwest 456 525 34,000  Level FlightAware
11:08PM -11.2618 -50.4313 332° Northwest  Level FlightAware Approximate
11:09PM -11.1477 -50.4922 332° Northwest  Level FlightAware Approximate
11:10PM -11.0335 -50.5531 332° Northwest  Level FlightAware Approximate
11:10PM -10.9400 -50.5870 332° Northwest 457 526 34,000  Level FlightAware
11:11PM -10.8440 -50.6370 333° Northwest 457 526 34,000  Level FlightAware
11:11PM -10.7750 -50.6720 334° Northwest 457 526 34,000  Level FlightAware
11:12PM -10.9220 -50.5960 153° Southeast 459 528 34,000  Level FlightAware
11:13PM -10.8640 -50.6260 333° Northwest 459 528 34,000  Level FlightAware
11:14PM -10.7870 -50.6660 333° Northwest 459 528 34,000  Level FlightAware
11:14PM -10.7130 -50.7050 333° Northwest 459 528 34,000  Level FlightAware
11:15PM -10.6360 -50.7450 333° Northwest 459 528 34,000  Level FlightAware
11:16PM -10.5780 -50.7750 333° Northwest 459 528 34,000  Level FlightAware
11:16PM -10.9850 -50.5640 153° Southeast 34,000  Level FlightAware
11:17PM -10.0590 -51.0340 333° Northwest 461 531 34,000  Level FlightAware
11:18PM -10.0010 -51.0640 333° Northwest 461 531 34,000  Level FlightAware
11:19PM -9.9230 -51.1040 333° Northwest 461 531 34,000  Level FlightAware
11:19PM -9.8650 -51.1340 333° Northwest 461 531 34,000  Level FlightAware
11:20PM -9.7660 -51.1850 333° Northwest 461 531 34,000  Level FlightAware
11:21PM -9.7080 -51.2150 333° Northwest 461 531 34,000  Level FlightAware
11:22PM -9.6310 -51.2550 333° Northwest 461 531 34,000  Level FlightAware
11:22PM -9.5720 -51.2850 333° Northwest 461 531 34,000  Level FlightAware
11:23PM -9.4950 -51.3260 332° Northwest 461 531 34,000  Level FlightAware
11:24PM -9.4370 -51.3560 333° Northwest 461 531 34,000  Level FlightAware
11:25PM -9.3590 -51.3960 333° Northwest 461 531 34,000  Level FlightAware
11:25PM -9.3010 -51.4260 333° Northwest 461 531 34,000  Level FlightAware
11:26PM -9.2240 -51.4660 333° Northwest 461 531 34,000  Level FlightAware
11:27PM -9.1650 -51.4960 333° Northwest 461 531 34,000  Level FlightAware
11:29PM -8.9576 -51.6058 332° Northwest  Level FlightAware Approximate
11:30PM -8.8434 -51.6662 332° Northwest  Level FlightAware Approximate
11:31PM -8.7291 -51.7266 332° Northwest  Level FlightAware Approximate
11:32PM -8.6149 -51.7869 332° Northwest  Level FlightAware Approximate
11:33PM -8.5007 -51.8472 332° Northwest  Level FlightAware Approximate
11:34PM -8.3864 -51.9074 332° Northwest  Level FlightAware Approximate
11:35PM -8.2722 -51.9677 332° Northwest  Level FlightAware Approximate
11:36PM -8.1579 -52.0278 332° Northwest  Level FlightAware Approximate
11:37PM -8.0437 -52.0880 332° Northwest  Level FlightAware Approximate
11:38PM -7.9294 -52.1481 332° Northwest  Level FlightAware Approximate
11:39PM -7.8151 -52.2082 332° Northwest  Level FlightAware Approximate
11:40PM -7.7008 -52.2682 332° Northwest  Level FlightAware Approximate
11:41PM -7.5865 -52.3283 333° Northwest  Level FlightAware Approximate
11:42PM -7.4722 -52.3882 333° Northwest  Level FlightAware Approximate
11:43PM -7.3579 -52.4482 333° Northwest  Level FlightAware Approximate
11:44PM -7.2435 -52.5081 333° Northwest  Level FlightAware Approximate
11:45PM -7.1292 -52.5680 333° Northwest  Level FlightAware Approximate
11:46PM -7.0149 -52.6278 333° Northwest  Level FlightAware Approximate
11:47PM -6.9005 -52.6877 333° Northwest  Level FlightAware Approximate
11:48PM -6.7861 -52.7475 333° Northwest  Level FlightAware Approximate
11:49PM -6.6718 -52.8073 333° Northwest  Level FlightAware Approximate
11:50PM -6.5574 -52.8670 333° Northwest  Level FlightAware Approximate
11:51PM -6.4430 -52.9267 333° Northwest  Level FlightAware Approximate
11:52PM -6.3286 -52.9864 333° Northwest  Level FlightAware Approximate
11:53PM -6.2143 -53.0461 333° Northwest  Level FlightAware Approximate
11:54PM -6.0999 -53.1057 333° Northwest  Level FlightAware Approximate
11:55PM -5.9854 -53.1653 333° Northwest  Level FlightAware Approximate
11:56PM -5.8710 -53.2249 333° Northwest  Level FlightAware Approximate
11:57PM -5.7566 -53.2845 333° Northwest  Level FlightAware Approximate
11:58PM -5.6422 -53.3440 333° Northwest  Level FlightAware Approximate
11:59PM -5.5278 -53.4035 333° Northwest  Level FlightAware Approximate
12:00AM -5.4133 -53.4630 333° Northwest  Level FlightAware Approximate
12:01AM -5.2989 -53.5225 333° Northwest  Level FlightAware Approximate
12:02AM -5.1844 -53.5820 333° Northwest  Level FlightAware Approximate
12:03AM -5.0700 -53.6414 333° Northwest  Level FlightAware Approximate
12:04AM -4.9555 -53.7008 333° Northwest  Level FlightAware Approximate
12:05AM -4.8410 -53.7602 333° Northwest  Level FlightAware Approximate
12:06AM -4.7266 -53.8195 333° Northwest  Level FlightAware Approximate
12:07AM -4.6121 -53.8789 333° Northwest  Level FlightAware Approximate
12:08AM -4.4976 -53.9382 333° Northwest  Level FlightAware Approximate
12:09AM -4.3831 -53.9975 333° Northwest  Level FlightAware Approximate
12:10AM -4.2686 -54.0568 333° Northwest  Level FlightAware Approximate
12:11AM -4.1541 -54.1161 333° Northwest  Level FlightAware Approximate
12:12AM -4.0396 -54.1754 333° Northwest  Level FlightAware Approximate
12:13AM -3.9251 -54.2346 333° Northwest  Level FlightAware Approximate
12:14AM -3.8106 -54.2938 333° Northwest  Level FlightAware Approximate
12:15AM -3.6961 -54.3530 333° Northwest  Level FlightAware Approximate
12:16AM -3.5816 -54.4122 333° Northwest  Level FlightAware Approximate
12:17AM -3.4671 -54.4714 333° Northwest  Level FlightAware Approximate
12:18AM -3.3525 -54.5306 333° Northwest  Level FlightAware Approximate
12:19AM -3.2380 -54.5897 333° Northwest  Level FlightAware Approximate
12:20AM -3.1235 -54.6488 333° Northwest  Level FlightAware Approximate
12:21AM -3.0089 -54.7080 333° Northwest  Level FlightAware Approximate
12:22AM -2.8944 -54.7671 333° Northwest  Level FlightAware Approximate
12:23AM -2.7799 -54.8262 333° Northwest  Level FlightAware Approximate
12:24AM -2.6653 -54.8853 333° Northwest  Level FlightAware Approximate
12:25AM -2.5508 -54.9444 333° Northwest  Level FlightAware Approximate
12:26AM -2.4362 -55.0034 333° Northwest  Level FlightAware Approximate
12:27AM -2.3217 -55.0625 333° Northwest  Level FlightAware Approximate
12:28AM -2.2071 -55.1215 333° Northwest  Level FlightAware Approximate
12:29AM -2.0926 -55.1806 333° Northwest  Level FlightAware Approximate
12:30AM -1.9780 -55.2396 333° Northwest  Level FlightAware Approximate
12:31AM -1.8635 -55.2986 333° Northwest  Level FlightAware Approximate
12:32AM -1.7489 -55.3576 333° Northwest  Level FlightAware Approximate
12:33AM -1.6343 -55.4166 333° Northwest  Level FlightAware Approximate
12:34AM -1.5198 -55.4756 333° Northwest  Level FlightAware Approximate
12:35AM -1.4052 -55.5346 333° Northwest  Level FlightAware Approximate
12:36AM -1.2906 -55.5936 333° Northwest  Level FlightAware Approximate
12:37AM -1.1760 -55.6526 333° Northwest  Level FlightAware Approximate
12:38AM -1.0615 -55.7116 333° Northwest  Level FlightAware Approximate
12:39AM -0.9469 -55.7705 333° Northwest  Level FlightAware Approximate
12:40AM -0.8323 -55.8295 333° Northwest  Level FlightAware Approximate
12:41AM -0.7178 -55.8885 333° Northwest  Level FlightAware Approximate
12:42AM -0.6032 -55.9474 333° Northwest  Level FlightAware Approximate
12:43AM -0.4886 -56.0064 333° Northwest  Level FlightAware Approximate
12:44AM -0.3740 -56.0653 333° Northwest  Level FlightAware Approximate
12:45AM -0.2594 -56.1243 333° Northwest  Level FlightAware Approximate
12:46AM -0.1449 -56.1833 333° Northwest  Level FlightAware Approximate
12:47AM -0.0303 -56.2422 333° Northwest  Level FlightAware Approximate
12:48AM 0.0843 -56.3012 333° Northwest  Level FlightAware Approximate
12:49AM 0.1989 -56.3601 333° Northwest  Level FlightAware Approximate
12:50AM 0.3135 -56.4191 333° Northwest  Level FlightAware Approximate
12:51AM 0.4280 -56.4780 333° Northwest  Level FlightAware Approximate
12:52AM 0.5426 -56.5370 333° Northwest  Level FlightAware Approximate
12:53AM 0.6572 -56.5959 333° Northwest  Level FlightAware Approximate
12:54AM 0.7718 -56.6549 333° Northwest  Level FlightAware Approximate
12:55AM 0.8863 -56.7139 333° Northwest  Level FlightAware Approximate
12:56AM 1.0009 -56.7728 333° Northwest  Level FlightAware Approximate
12:57AM 1.1155 -56.8318 333° Northwest  Level FlightAware Approximate
12:58AM 1.2300 -56.8908 333° Northwest  Level FlightAware Approximate
12:59AM 1.3446 -56.9498 333° Northwest  Level FlightAware Approximate
01:00AM 1.4592 -57.0088 333° Northwest  Level FlightAware Approximate
01:01AM 1.5738 -57.0677 333° Northwest  Level FlightAware Approximate
01:02AM 1.6883 -57.1268 333° Northwest  Level FlightAware Approximate
01:03AM 1.8029 -57.1858 333° Northwest  Level FlightAware Approximate
01:04AM 1.9174 -57.2448 333° Northwest  Level FlightAware Approximate
01:05AM 2.0320 -57.3038 333° Northwest  Level FlightAware Approximate
01:06AM 2.1465 -57.3628 333° Northwest  Level FlightAware Approximate
01:07AM 2.2611 -57.4219 333° Northwest  Level FlightAware Approximate
01:08AM 2.3755 -57.4814 333° Northwest  Level FlightAware Approximate
01:09AM 2.4898 -57.5409 332° Northwest  Level FlightAware Approximate
01:10AM 2.6041 -57.6005 332° Northwest  Level FlightAware Approximate
01:11AM 2.7184 -57.6601 332° Northwest  Level FlightAware Approximate
01:12AM 2.8327 -57.7197 332° Northwest  Level FlightAware Approximate
01:13AM 2.9470 -57.7793 332° Northwest  Level FlightAware Approximate
01:14AM 3.0612 -57.8389 332° Northwest  Level FlightAware Approximate
01:15AM 3.1755 -57.8985 332° Northwest  Level FlightAware Approximate
01:16AM 3.2898 -57.9581 332° Northwest  Level FlightAware Approximate
01:17AM 3.4041 -58.0178 332° Northwest  Level FlightAware Approximate
01:18AM 3.5183 -58.0775 332° Northwest  Level FlightAware Approximate
01:19AM 3.6326 -58.1371 332° Northwest  Level FlightAware Approximate
01:20AM 3.7468 -58.1968 332° Northwest  Level FlightAware Approximate
01:21AM 3.8613 -58.2561 333° Northwest  Level FlightAware Approximate
01:22AM 3.9762 -58.3147 333° Northwest  Level FlightAware Approximate
01:23AM 4.0910 -58.3732 333° Northwest  Level FlightAware Approximate
01:24AM 4.2059 -58.4318 333° Northwest  Level FlightAware Approximate
01:25AM 4.3207 -58.4904 333° Northwest  Level FlightAware Approximate
01:26AM 4.4355 -58.5490 333° Northwest  Level FlightAware Approximate
01:27AM 4.5504 -58.6077 333° Northwest  Level FlightAware Approximate
01:28AM 4.6652 -58.6664 333° Northwest  Level FlightAware Approximate
01:29AM 4.7800 -58.7250 333° Northwest  Level FlightAware Approximate
01:30AM 4.8948 -58.7837 333° Northwest  Level FlightAware Approximate
01:31AM 5.0096 -58.8424 333° Northwest  Level FlightAware Approximate
01:32AM 5.1244 -58.9012 333° Northwest  Level FlightAware Approximate
01:33AM 5.2392 -58.9599 333° Northwest  Level FlightAware Approximate
01:34AM 5.3540 -59.0187 333° Northwest  Level FlightAware Approximate
01:35AM 5.4685 -59.0781 333° Northwest  Level FlightAware Approximate
01:36AM 5.5831 -59.1374 333° Northwest  Level FlightAware Approximate
01:37AM 5.6976 -59.1968 333° Northwest  Level FlightAware Approximate
01:38AM 5.8121 -59.2562 333° Northwest  Level FlightAware Approximate
01:39AM 5.9266 -59.3156 333° Northwest  Level FlightAware Approximate
01:40AM 6.0411 -59.3751 333° Northwest  Level FlightAware Approximate
01:41AM 6.1555 -59.4345 333° Northwest  Level FlightAware Approximate
01:42AM 6.2700 -59.4940 333° Northwest  Level FlightAware Approximate
01:43AM 6.3845 -59.5536 333° Northwest  Level FlightAware Approximate
01:44AM 6.4990 -59.6131 333° Northwest  Level FlightAware Approximate
01:45AM 6.6134 -59.6727 333° Northwest  Level FlightAware Approximate
01:46AM 6.7279 -59.7323 333° Northwest  Level FlightAware Approximate
01:47AM 6.8423 -59.7919 333° Northwest  Level FlightAware Approximate
01:48AM 6.9567 -59.8516 333° Northwest  Level FlightAware Approximate
01:49AM 7.0712 -59.9113 333° Northwest  Level FlightAware Approximate
01:50AM 7.1856 -59.9710 333° Northwest  Level FlightAware Approximate
01:51AM 7.3000 -60.0307 333° Northwest  Level FlightAware Approximate
01:52AM 7.4144 -60.0905 333° Northwest  Level FlightAware Approximate
01:53AM 7.5288 -60.1503 333° Northwest  Level FlightAware Approximate
01:54AM 7.6432 -60.2102 333° Northwest  Level FlightAware Approximate
01:55AM 7.7576 -60.2700 333° Northwest  Level FlightAware Approximate
01:56AM 7.8720 -60.3299 333° Northwest  Level FlightAware Approximate
01:57AM 7.9863 -60.3899 333° Northwest  Level FlightAware Approximate
01:58AM 8.1007 -60.4499 333° Northwest  Level FlightAware Approximate
01:59AM 8.2150 -60.5099 333° Northwest  Level FlightAware Approximate
02:00AM 8.3294 -60.5699 333° Northwest  Level FlightAware Approximate
02:01AM 8.4437 -60.6300 333° Northwest  Level FlightAware Approximate
02:02AM 8.5580 -60.6901 333° Northwest  Level FlightAware Approximate
02:03AM 8.6723 -60.7503 333° Northwest  Level FlightAware Approximate
02:04AM 8.7866 -60.8104 333° Northwest  Level FlightAware Approximate
02:04AM 9.3190 -60.4610 333° Northwest 468 539 36,000  Level FlightAware
02:05AM 8.9009 -60.8707 333° Northwest  Level FlightAware Approximate
02:05AM 9.3720 -60.5050 321° Northwest 468 539 36,000  Level FlightAware
02:05AM 9.4410 -60.5610 321° Northwest 468 539 36,000  Level FlightAware
02:06AM 9.5090 -60.6180 320° Northwest 468 539 36,000  Level FlightAware
02:07AM 9.5610 -60.6600 321° Northwest 468 539 36,000  Level FlightAware
02:08AM 9.6300 -60.7160 321° Northwest 468 539 36,000  Level FlightAware
02:10AM 9.8017 -60.8991 314° West  Level Estimated
02:11AM 9.8875 -60.9908 314° West  Level Estimated
02:12AM 9.9733 -61.0824 314° West  Level Estimated
02:13AM 10.0591 -61.1742 314° West  Level Estimated
02:13AM 10.2030 -61.1780 314° West 461 531 36,000  Level FlightAware
02:14AM 10.1448 -61.2659 314° West  Level Estimated
02:14AM 10.3420 -61.2910 321° Northwest 461 531 36,000  Level FlightAware
02:16AM 10.4590 -61.3870 313° West 461 531 36,000  Level FlightAware
02:17AM 10.5480 -61.5142 313° West  Level Estimated
02:18AM 10.6360 -61.5330 321° Northwest 461 531 36,000  Level FlightAware
02:18AM 10.6860 -61.5740 321° Northwest 461 531 36,000  Level FlightAware
02:19AM 10.7530 -61.6300 321° Northwest 461 531 36,000  Level FlightAware
02:20AM 10.8040 -61.6710 322° Northwest 461 531 36,000  Level FlightAware
02:20AM 10.8720 -61.7270 321° Northwest 461 531 36,000  Level FlightAware
02:21AM 11.0960 -61.7680 350° North 464 534 36,000  Level FlightAware
02:22AM 11.1150 -61.7790 330° Northwest 464 534 36,000  Level FlightAware
02:23AM 11.1940 -61.8280 329° Northwest 464 534 36,000  Level FlightAware
02:23AM 11.2510 -61.8630 329° Northwest 464 534 36,000  Level FlightAware
02:24AM 11.3260 -61.9090 329° Northwest 464 534 36,000  Level FlightAware
02:25AM 11.3820 -61.9430 329° Northwest 464 534 36,000  Level FlightAware
02:25AM 11.4570 -61.9890 329° Northwest 464 534 36,000  Level FlightAware
02:26AM 11.5130 -62.0240 329° Northwest 464 534 36,000  Level FlightAware
02:27AM 11.6070 -62.0810 329° Northwest 464 534 36,000  Level FlightAware
02:28AM 11.6640 -62.1160 329° Northwest 464 534 36,000  Level FlightAware
02:28AM 11.7390 -62.1620 329° Northwest 464 534 36,000  Level FlightAware
02:29AM 11.7970 -62.1970 329° Northwest 464 534 36,000  Level FlightAware
02:31AM 12.0060 -62.3260 329° Northwest 464 534 36,000  Level FlightAware
02:32AM 12.3090 -62.4780 334° Northwest 452 520 36,000  Level FlightAware
02:33AM 12.3770 -62.5200 329° Northwest 452 520 36,000  Level FlightAware
02:34AM 12.4500 -62.5650 329° Northwest 452 520 36,000  Level FlightAware
02:35AM 12.5740 -62.6390 330° Northwest 454 522 36,000  Level FlightAware
02:36AM 12.6730 -62.6990 329° Northwest 455 524 36,000  Level FlightAware
02:36AM 12.7280 -62.7330 329° Northwest 455 524 36,000  Level FlightAware
02:37AM 12.8020 -62.7780 329° Northwest 455 524 36,000  Level FlightAware
02:40AM 12.9838 -62.9940 311° West  Level Estimated
02:41AM 13.0651 -63.0909 311° West  Level Estimated
02:42AM 13.1464 -63.1878 311° West  Level Estimated
02:43AM 13.2277 -63.2847 311° West  Level Estimated
02:44AM 13.3089 -63.3817 311° West  Level Estimated
02:45AM 13.3901 -63.4788 311° West  Level Estimated
02:46AM 13.4713 -63.5760 311° West  Level Estimated
02:47AM 13.5524 -63.6732 311° West  Level Estimated
02:48AM 13.6335 -63.7705 311° West  Level Estimated
02:49AM 13.7146 -63.8678 311° West  Level Estimated
02:50AM 13.7956 -63.9652 311° West  Level Estimated
02:51AM 13.8765 -64.0627 311° West  Level Estimated
02:52AM 13.9575 -64.1603 311° West  Level Estimated
02:53AM 14.0384 -64.2579 311° West  Level Estimated
02:54AM 14.1192 -64.3556 310° West  Level Estimated
02:55AM 14.2000 -64.4534 310° West  Level Estimated
02:56AM 14.2808 -64.5512 310° West  Level Estimated
02:57AM 14.3615 -64.6491 310° West  Level Estimated
02:58AM 14.4422 -64.7471 310° West  Level Estimated
02:59AM 14.5229 -64.8451 310° West  Level Estimated
03:00AM 14.6035 -64.9432 310° West  Level Estimated
03:01AM 14.6840 -65.0414 310° West  Level Estimated
03:01AM 15.4167 -64.4833 310° West 440 506 36,000  Level San Juan Center
03:02AM 14.7646 -65.1397 310° West  Level Estimated
03:02AM 15.5167 -64.5500 327° Northwest 430 495 36,000  Level San Juan Center
03:03AM 14.8450 -65.2380 310° West  Level Estimated
03:03AM 15.6000 -64.6167 322° Northwest 430 495 36,000  Level San Juan Center
03:04AM 14.9255 -65.3364 310° West  Level Estimated
03:04AM 15.7000 -64.7000 321° Northwest 470 541 36,000  Level San Juan Center
03:05AM 15.0059 -65.4349 310° West  Level Estimated
03:06AM 15.0863 -65.5334 310° West  Level Estimated
03:07AM 15.1666 -65.6321 310° West  Level Estimated
03:10AM 16.2410 -65.1590 321° Northwest 452 520 36,000  Level FlightAware
03:10AM 16.3090 -65.2150 322° Northwest 453 521 36,000  Level FlightAware
03:11AM 16.3720 -65.2700 320° Northwest 453 521 36,000  Level FlightAware
03:12AM 16.4420 -65.3280 322° Northwest 454 522 36,000  Level FlightAware
03:12AM 16.5080 -65.3830 321° Northwest 454 522 36,000  Level FlightAware
03:13AM 16.5730 -65.4380 321° Northwest 454 522 36,000  Level FlightAware
03:14AM 16.6240 -65.4820 320° Northwest 454 522 36,000  Level FlightAware
03:14AM 16.6900 -65.5400 320° Northwest 454 522 36,000  Level FlightAware
03:15AM 16.7460 -65.5890 320° Northwest 454 522 36,000  Level FlightAware
03:16AM 16.8460 -65.6690 323° Northwest 456 525 36,000  Level FlightAware
03:17AM 16.9340 -65.7430 321° Northwest 456 525 36,000  Level FlightAware
03:17AM 16.9850 -65.7870 320° Northwest 456 525 36,000  Level FlightAware
03:18AM 17.0600 -65.8520 320° Northwest 456 525 36,000  Level FlightAware
03:19AM 17.1360 -65.9150 322° Northwest 454 522 36,000  Level FlightAware
03:19AM 17.2100 -65.9780 321° Northwest 454 522 36,000  Level FlightAware
03:20AM 17.2720 -66.0310 321° Northwest 454 522 36,000  Level FlightAware
03:21AM 17.3470 -66.0950 321° Northwest 453 521 36,000  Level FlightAware
03:22AM 17.4110 -66.1490 321° Northwest 452 520 36,000  Level FlightAware
03:22AM 17.4840 -66.2120 321° Northwest 451 519 36,000  Level FlightAware
03:23AM 17.5480 -66.2660 321° Northwest 450 518 36,000  Level FlightAware
03:24AM 17.6190 -66.3280 320° Northwest 449 517 36,000  Level FlightAware
03:24AM 17.6810 -66.3800 321° Northwest 447 514 36,000  Level FlightAware
03:25AM 17.7530 -66.4420 321° Northwest 447 514 36,000  Level FlightAware
03:26AM 17.8190 -66.4990 321° Northwest 446 513 36,000  Level FlightAware
03:26AM 17.8870 -66.5580 320° Northwest 444 511 36,000  Level FlightAware
03:27AM 17.9540 -66.6150 321° Northwest 444 511 36,000  Level FlightAware
03:28AM 18.0230 -66.6750 320° Northwest 444 511 36,000  Level FlightAware
03:29AM 18.0870 -66.7300 321° Northwest 444 511 36,000  Level FlightAware
03:29AM 18.1550 -66.7880 321° Northwest 444 511 36,000  Level FlightAware
03:30AM 18.2240 -66.8480 320° Northwest 445 512 36,000  Level FlightAware
03:31AM 18.2850 -66.9010 320° Northwest 445 512 36,000  Level FlightAware
03:31AM 18.3530 -66.9590 321° Northwest 447 514 36,000  Level FlightAware
03:32AM 18.4210 -67.0190 320° Northwest 446 513 36,000  Level FlightAware
03:33AM 18.4800 -67.0700 321° Northwest 447 514 36,000  Level FlightAware
03:33AM 18.5370 -67.1320 314° West 449 517 36,000  Level FlightAware
03:34AM 18.5940 -67.2070 309° West 450 518 36,000  Level FlightAware
03:35AM 18.6410 -67.2690 309° West 450 518 36,000  Level FlightAware
03:35AM 18.6920 -67.3380 308° West 450 518 36,000  Level FlightAware
03:36AM 18.7440 -67.4070 309° West 449 517 36,000  Level FlightAware
03:37AM 18.7950 -67.4750 308° West 450 518 36,000  Level FlightAware
03:37AM 18.8480 -67.5450 309° West 450 518 36,000  Level FlightAware
03:38AM 18.8990 -67.6130 308° West 451 519 36,000  Level FlightAware
03:39AM 18.9510 -67.6830 308° West 452 520 36,000  Level FlightAware
03:39AM 19.0070 -67.7570 309° West 453 521 36,000  Level FlightAware
03:40AM 19.0670 -67.8370 308° West 454 522 36,000  Level FlightAware
03:41AM 19.1170 -67.9040 308° West 455 524 36,000  Level FlightAware
03:42AM 19.1760 -67.9840 308° West 454 522 36,000  Level FlightAware
03:42AM 19.2180 -68.0400 308° West 453 521 36,000  Level FlightAware
03:43AM 19.2700 -68.1090 309° West 453 521 36,000  Level FlightAware
03:43AM 19.3250 -68.1830 308° West 453 521 36,000  Level FlightAware
03:44AM 19.3740 -68.2490 308° West 451 519 36,000  Level FlightAware
03:44AM 19.4000 -68.2850 307° West 451 519 36,000  Level FlightAware
03:45AM 19.4660 -68.3740 308° West 450 518 36,000  Level FlightAware
03:46AM 19.5410 -68.4750 308° West 452 520 36,000  Level FlightAware
03:47AM 19.5950 -68.5490 308° West 450 518 36,000  Level FlightAware
03:48AM 19.6510 -68.6250 308° West 450 518 36,000  Level FlightAware
03:48AM 19.7020 -68.6940 308° West 448 516 36,000  Level FlightAware
03:49AM 19.7570 -68.7680 308° West 447 514 36,000  Level FlightAware
03:50AM 19.8030 -68.8330 307° West 444 511 36,000  Level FlightAware
03:50AM 19.8430 -68.9060 300° West 445 512 36,000  Level FlightAware
03:51AM 19.8930 -68.9980 300° West 446 513 36,000  Level FlightAware
03:52AM 19.9250 -69.0560 300° West 446 513 36,000  Level FlightAware
03:53AM 19.9680 -69.1350 300° West 446 513 36,000  Level FlightAware
03:53AM 19.9990 -69.1940 299° West 446 513 36,000  Level FlightAware
03:54AM 20.0420 -69.2730 300° West 446 513 36,000  Level FlightAware
03:55AM 20.0740 -69.3310 300° West 446 513 36,000  Level FlightAware
03:55AM 20.1050 -69.3890 300° West 446 513 36,000  Level FlightAware
03:56AM 20.1480 -69.4680 300° West 446 513 36,000  Level FlightAware
03:57AM 20.1800 -69.5270 300° West 446 513 36,000  Level FlightAware
03:57AM 20.2220 -69.6040 300° West 446 513 36,000  Level FlightAware
03:58AM 20.2540 -69.6630 300° West 446 513 36,000  Level FlightAware
03:59AM 20.3800 -69.8640 304° West 445 512 36,000  Level FlightAware
03:59AM 20.4110 -69.9220 300° West 445 512 36,000  Level FlightAware
04:00AM 20.4610 -70.0140 300° West 445 512 36,000  Level FlightAware
04:01AM 20.4940 -70.0740 300° West 445 512 36,000  Level FlightAware
04:02AM 20.5360 -70.1520 300° West 445 512 36,000  Level FlightAware
04:02AM 20.5690 -70.2130 300° West 445 512 36,000  Level FlightAware
04:03AM 20.6000 -70.2710 300° West 445 512 36,000  Level FlightAware
04:04AM 20.6330 -70.3310 300° West 445 512 36,000  Level FlightAware
04:04AM 20.6760 -70.4110 300° West 445 512 36,000  Level FlightAware
04:05AM 20.7070 -70.4690 300° West 445 512 36,000  Level FlightAware
04:06AM 20.7490 -70.5470 300° West 445 512 36,000  Level FlightAware
04:07AM 20.7820 -70.6070 300° West 445 512 36,000  Level FlightAware
04:07AM 20.8230 -70.6850 299° West 445 512 36,000  Level FlightAware
04:08AM 20.8530 -70.7400 300° West 445 512 36,000  Level FlightAware
04:09AM 20.9906 -70.9708 300° West 445 512 36,000  Level Miami Center
04:10AM 21.0578 -71.0989 299° West 445 512 36,000  Level Miami Center
04:11AM 21.1206 -71.2139 300° West 445 512 36,000  Level Miami Center
04:12AM 21.1853 -71.3292 301° West 445 512 36,000  Level Miami Center
04:13AM 21.2458 -71.4467 299° West 445 512 36,000  Level Miami Center
04:14AM 21.3081 -71.5578 301° West 445 512 36,000  Level Miami Center
04:15AM 21.3725 -71.6756 300° West 451 519 36,000  Level Miami Center
04:16AM 21.4347 -71.7889 301° West 451 519 36,000  Level Miami Center
04:17AM 21.4969 -71.9069 300° West 451 519 36,000  Level Miami Center
04:18AM 21.5592 -72.0228 300° West 451 519 36,000  Level Miami Center
04:19AM 21.6211 -72.1389 300° West 451 519 36,000  Level Miami Center
04:20AM 21.6831 -72.2550 300° West 451 519 36,000  Level Miami Center
04:21AM 21.7450 -72.3736 299° West 451 519 36,000  Level Miami Center
04:22AM 21.8092 -72.4919 300° West 451 519 36,000  Level Miami Center
04:23AM 21.8708 -72.6086 300° West 451 519 36,000  Level Miami Center
04:24AM 21.9347 -72.7294 300° West 456 525 36,000  Level Miami Center
04:25AM 21.9983 -72.8461 300° West 456 525 36,000  Level Miami Center
04:26AM 22.0639 -72.9650 301° West 456 525 36,000  Level Miami Center
04:27AM 22.1122 -73.0600 299° West 456 525 36,000  Level Miami Center
04:28AM 22.1781 -73.1903 299° West 456 525 36,000  Level Miami Center
04:29AM 22.2417 -73.3097 300° West 456 525 36,000  Level Miami Center
04:30AM 22.3072 -73.4450 298° West 456 525 36,000  Level Miami Center
04:31AM 22.3706 -73.5622 300° West 451 519 36,000  Level Miami Center
04:32AM 22.4314 -73.6819 299° West 451 519 36,000  Level Miami Center
04:33AM 22.4947 -73.8064 299° West 451 519 36,000  Level Miami Center
04:34AM 22.5553 -73.9239 299° West 451 519 36,000  Level Miami Center
04:35AM 22.6183 -74.0419 300° West 451 519 36,000  Level Miami Center
04:36AM 22.6789 -74.1619 299° West 456 525 36,000  Level Miami Center
04:37AM 22.7417 -74.2800 300° West 456 525 36,000  Level Miami Center
04:38AM 22.8042 -74.4006 299° West 456 525 36,000  Level Miami Center
04:39AM 22.8644 -74.5211 299° West 456 525 36,000  Level Miami Center
04:40AM 22.9269 -74.6394 300° West 456 525 36,000  Level Miami Center
04:41AM 22.9850 -74.7581 298° West 456 525 36,000  Level Miami Center
04:42AM 23.0472 -74.8789 299° West 456 525 36,000  Level Miami Center
04:43AM 23.1094 -74.9978 300° West 456 525 36,000  Level Miami Center
04:44AM 23.1694 -75.1189 298° West 456 525 36,000  Level Miami Center
04:45AM 23.2292 -75.2378 299° West 456 525 36,000  Level Miami Center
04:46AM 23.2911 -75.3547 300° West 456 525 36,000  Level Miami Center
04:47AM 23.3506 -75.4761 298° West 456 525 36,000  Level Miami Center
04:48AM 23.4103 -75.5933 299° West 456 525 36,000  Level Miami Center
04:49AM 23.4697 -75.7217 297° West 456 525 36,000  Level Miami Center
04:50AM 23.5311 -75.8414 299° West 456 525 36,000  Level Miami Center
04:51AM 23.5906 -75.9542 300° West 476 548 36,000  Level Miami Center
04:52AM 23.6497 -76.0742 298° West 462 532 36,000  Level Miami Center
04:53AM 23.7089 -76.1939 298° West 452 520 36,000  Level Miami Center
04:54AM 23.7700 -76.3161 299° West 452 520 36,000  Level Miami Center
04:55AM 23.8308 -76.4386 299° West 452 520 36,000  Level Miami Center
04:56AM 23.8875 -76.5589 297° West 452 520 36,000  Level Miami Center
04:57AM 23.9483 -76.6792 299° West 452 520 36,000  Level Miami Center
04:58AM 24.0069 -76.8019 298° West 452 520 36,000  Level Miami Center
04:59AM 24.0697 -76.9294 298° West 452 520 36,000  Level Miami Center
05:00AM 24.1281 -77.0547 297° West 447 514 36,000  Level Miami Center
05:01AM 24.1864 -77.1756 298° West 452 520 36,000  Level Miami Center
05:02AM 24.2467 -77.2986 298° West 452 520 36,000  Level Miami Center
05:03AM 24.3050 -77.4244 297° West 457 526 36,000  Level Miami Center
05:09AM 24.6740 -78.1880 297° West 467 537 36,000 -180 Level FlightAware
05:09AM 24.7200 -78.2830 298° West 472 543 35,000 -1,440 Descending FlightAware
05:10AM 24.7610 -78.3690 298° West 474 545 34,200 -1,200 Descending FlightAware
05:10AM 24.7800 -78.4100 297° West 475 547 33,800 -1,200 Descending FlightAware
05:11AM 24.8420 -78.5430 297° West 478 550 32,600 -1,140 Descending FlightAware
05:12AM 24.8830 -78.6290 298° West 476 548 31,900 -1,080 Descending FlightAware
05:13AM 24.9240 -78.7160 297° West 474 545 31,200 -1,200 Descending FlightAware
05:13AM 24.9640 -78.8020 297° West 478 550 30,300 -1,380 Descending FlightAware
05:14AM 25.0010 -78.8810 297° West 480 552 29,500 -1,200 Descending FlightAware
05:17AM 25.1990 -79.3080 297° West 470 541 25,500 -1,200 Descending FlightAware
05:18AM 25.2430 -79.4040 297° West 469 540 24,900 -1,020 Descending FlightAware
05:19AM 25.2900 -79.5060 297° West 465 535 24,200 -900 Descending FlightAware
05:19AM 25.3240 -79.5790 297° West 462 532 23,700 -840 Descending FlightAware
05:20AM 25.3630 -79.6650 297° West 454 522 23,200 -840 Descending FlightAware
05:21AM 25.4040 -79.7450 300° West 450 518 22,600 -1,920 Descending FlightAware
05:21AM 25.4590 -79.8300 306° West 440 506 20,500 -2,940 Descending FlightAware
05:22AM 25.4990 -79.8900 306° West 417 480 18,700 -4,020 Descending FlightAware
05:24AM 25.5990 -80.0410 306° West 385 443 12,200 -3,840 Descending FlightAware
05:24AM 25.6430 -80.1090 306° West 342 394 10,100 -2,640 Descending FlightAware
05:25AM 25.6560 -80.1320 302° West 329 379 9,600 -1,920 Descending FlightAware
05:25AM 25.6700 -80.1690 293° West 299 344 8,800 -1,140 Descending FlightAware
05:25AM 25.6820 -80.2100 288° West 270 311 8,600 -900 Descending FlightAware
05:26AM 25.6920 -80.2510 285° West 271 312 7,900 -1,320 Descending FlightAware
05:26AM 25.7010 -80.2850 286° West 270 311 7,400 -1,320 Descending FlightAware
05:27AM 25.7090 -80.3260 282° West 267 307 6,700 -1,320 Descending FlightAware
05:27AM 25.7090 -80.3610 270° West 262 302 6,200 -1,080 Descending FlightAware
05:28AM 25.7080 -80.3940 268° West 250 288 5,800 -1,440 Descending FlightAware
05:28AM 25.7070 -80.4330 268° West 234 269 4,900 -1,500 Descending FlightAware
05:29AM 25.7380 -80.4960 299° West 226 260 3,300 -1,320 Descending FlightAware
05:30AM 25.7610 -80.4790 34° Northeast 197 227 2,700 -900 Descending FlightAware
05:30AM 25.7760 -80.4570 53° Northeast 211 243 2,500 -780 Descending FlightAware
05:31AM 25.7800 -80.4420 74° East 200 230 2,200 -1,200 Descending FlightAware
05:31AM 25.7810 -80.4320 84° East 189 217 2,000 -900 Descending FlightAware
05:31AM 25.7820 -80.4050 88° East 153 176 1,600 -840 Descending FlightAware
05:32AM 25.7830 -80.3830 87° East 133 153 1,200 -720 Descending FlightAware
05:32AM 25.7840 -80.3710 85° East 133 153 1,000 -720 Descending FlightAware
05:33AM 25.7850 -80.3420 88° East 132 152 500 -720 Descending FlightAware
05:33AM 25.7850 -80.3290 90° East 134 154 300 -600 Descending FlightAware
05:34AM 25.7870 -80.3010 85° East 134 154 -540 Descending FlightAware
05:34AM 25.7870 -80.2890 90° East 54 62  Level FlightAware
05:35AM 25.7870 -80.2860 90° East 26 30  Level FlightAware
05:35AM 25.7880 -80.2850 42° Northeast 23 26  Level FlightAware
05:35AM 25.7880 -80.2840 90° East 19 22  Level FlightAware
05:35AM 25.7900 -80.2820 42° Northeast 30 35  Level FlightAware
05:36AM 25.7890 -80.2810 138° Southeast 29 33  Level FlightAware
05:36AM 25.7890 -80.2800 90° East 26 30  Level FlightAware
05:36AM 25.7890 -80.2790 90° East 31 36  Level FlightAware
05:37AM 25.7890 -80.2780 90° East 34 39  Level FlightAware
05:37AM 25.7890 -80.2760 90° East 33 38  Level FlightAware
05:38AM 25.7890 -80.2740 90° East 18 21  Level FlightAware
05:38AM 25.7900 -80.2730 42° Northeast 19 22  Level FlightAware
05:41AM 25.7833 -80.2833 77° East  Level FlightAware Approximate
05:42AM 25.7954 -80.2901 77° East  Level Estimated